ADDS METAR Data INFO
IDs: Format: Raw Decoded Include TAF

Data at: 1008 UTC 22 May 2018

KMDH 221005Z AUTO 00000KT 1/4SM FG CLR 18/18 A2999 RMK AO2 T01780178
KMDH 220952Z AUTO 00000KT 1/2SM FG CLR 18/18 A2999 RMK AO2 SLP152 T01780178
KMDH 220940Z AUTO 00000KT 3/4SM BR CLR 18/18 A2999 RMK AO2 T01830178
KMDH 220930Z AUTO 00000KT 1/4SM FG CLR 18/18 A2999 RMK AO2 T01780178
KMDH 220921Z AUTO 18003KT 3/4SM BR VV003 18/18 A2999 RMK AO2 T01830183
KMDH 220916Z AUTO 00000KT 1 3/4SM BR CLR 19/18 A2999 RMK AO2 T01890183
KMDH 220907Z AUTO 00000KT 4SM BR CLR 19/18 A2999 RMK AO2 T01890183
KMDH 220900Z AUTO 00000KT 2 1/2SM BR CLR 18/18 A2999 RMK AO2 T01830183
KMDH 220851Z AUTO 00000KT 3/4SM BR CLR 19/19 A2999 RMK AO2 VIS 1/2V2 SLP152 T01890189 56004
KMDH 220850Z AUTO 00000KT 3/4SM BR CLR 19/19 A2999 RMK AO2 VIS 1/2V2
KMDH 220842Z AUTO 00000KT 2SM BR CLR 19/19 A2999 RMK AO2 T01890189
KMDH 220838Z AUTO 00000KT 3/4SM BR CLR 19/19 A2999 RMK AO2 T01890189
KMDH 220808Z AUTO 00000KT 1/4SM FG CLR 19/18 A2999 RMK AO2 T01890183
KMDH 220801Z AUTO 00000KT 1 1/4SM BR CLR 19/19 A2999 RMK AO2 T01890189
KMDH 220752Z AUTO 00000KT 5SM BR CLR 19/19 A2999 RMK AO2 SLP153 T01940189
KMDH 220652Z AUTO 00000KT 6SM BR CLR 19/19 A2999 RMK AO2 SLP154 T01940189
KMDH 220552Z AUTO 00000KT 5SM BR CLR 19/19 A3000 RMK AO2 SLP156 T01940189 10250 20194 402670189 58004
KMDH 220452Z AUTO 00000KT 8SM CLR 20/19 A3001 RMK AO2 SLP160 T02000194
KMDH 220352Z AUTO 00000KT 10SM CLR 21/19 A3002 RMK AO2 SLP161 T02060194
KMDH 220252Z AUTO 00000KT 10SM CLR 22/20 A3001 RMK AO2 SLP161 T02220200 53008
KMDH 220152Z 17004KT 10SM CLR 22/20 A3000 RMK AO2 SLP154 T02220200
KMDH 220052Z 18006KT 10SM CLR 23/21 A2999 RMK AO2 SLP152 T02330206
KMDH 212352Z 19006KT 10SM CLR 24/20 A2999 RMK AO2 SLP153 T02440200 10267 20228 56006
KMDH 212252Z 18004KT 10SM CLR 26/20 A3000 RMK AO2 SLP156 T02560200
KMDH 212152Z 18008KT 10SM BKN038 26/21 A3000 RMK AO2 SLP155 T02610206
KMDH 212052Z 20011G16KT 10SM FEW029 SCT037 26/21 A3001 RMK AO2 SLP159 T02610206 58022
KMDH 212039Z 19008KT 10SM FEW029 BKN037 26/21 A3001 RMK AO2 T02610206
KMDH 212023Z 20010KT 10SM BKN029 BKN035 26/20 A3002 RMK AO2 T02610200
KMDH 212014Z 17009KT 10SM SCT027 BKN033 26/21 A3003 RMK AO2 T02610206
KMDH 212007Z 18008KT 10SM FEW022 BKN029 BKN036 26/20 A3003 RMK AO2 T02610200
KMDH 211952Z 16009KT 10SM SCT024 SCT032 25/21 A3003 RMK AO2 SLP168 T02500206
KMDH 211852Z 16012G19KT 10SM FEW095 SCT120 24/20 A3006 RMK AO2 SLP176 T02440200
KMDH 211752Z 19006KT 10SM SCT020 OVC110 23/19 A3007 RMK AO2 RAB30E39 SLP181 P0000 60001 T02280194 10239 20194 58002
KMDH 211720Z 20008KT 10SM BKN020 BKN120 23/20 A3008 RMK AO2 T02330200
KMDH 211652Z 18008KT 10SM FEW015 BKN120 23/20 A3008 RMK AO2 SLP184 T02330200
KMDH 211552Z 15006KT 10SM OVC110 22/20 A3008 RMK AO2 RAB11E40 SLP183 P0000 T02220200
KMDH 211452Z 11003KT 10SM FEW011 FEW018 OVC110 21/19 A3007 RMK AO2 RAE31 SLP180 P0000 60001 T02110194 53000
KMDH 211352Z 00000KT 10SM -RA BKN110 21/19 A3006 RMK AO2 RAB36 SLP177 P0001 T02110194
KMDH 211252Z 12003KT 10SM FEW110 21/19 A3006 RMK AO2 RAB1156E11B31E47 SLP176 P0000 T02060189
KMDH 211152Z 18005KT 10SM BKN110 19/19 A3007 RMK AO2 RAE49 SLP179 P0001 60004 70047 T01940189 10206 20189 55001
KMDH 211052Z AUTO 15005KT 7SM -RA BKN110 19/19 A3006 RMK AO2 SLP177 P0003 T01940189
KMDH 210952Z AUTO 21006KT 9SM -RA SCT100 BKN120 19/18 A3007 RMK AO2 RAB00E09B51 SLP180 P0000 T01940183
KMDH 210852Z AUTO 00000KT 10SM FEW044 19/18 A3007 RMK AO2 SLP180 60000 T01940183 58006
KMDH 210752Z AUTO 00000KT 10SM CLR 20/18 A3008 RMK AO2 RAE0654 SLP182 P0000 T02000183
KMDH 210652Z AUTO 00000KT 10SM -RA FEW018 BKN046 OVC060 20/19 A3010 RMK AO2 RAB39 SLP191 P0000 T02000194
KMDH 210552Z AUTO 00000KT 7SM BKN120 19/19 A3009 RMK AO2 SLP186 T01890189 10211 20183 402670167 53008
KMDH 210452Z AUTO 29003KT 9SM CLR 19/18 A3009 RMK AO2 SLP185 T01890183
KMDH 210352Z AUTO 00000KT 10SM CLR 19/18 A3007 RMK AO2 SLP179 T01890178
KMDH 210252Z AUTO 15004KT 10SM CLR 19/18 A3007 RMK AO2 SLP178 T01940183 51012
KMDH 210152Z 15003KT 10SM CLR 19/19 A3006 RMK AO2 SLP178 T01940189
KMDH 210052Z 11006KT 10SM CLR 21/19 A3004 RMK AO2 SLP169 T02060189
KMDH 202352Z 14003KT 10SM CLR 21/19 A3003 RMK AO2 SLP167 60031 T02110189 10256 20200 55009
KMDH 202252Z 11003KT 10SM CLR 21/18 A3003 RMK AO2 SLP165 T02110183